Flight Track Log - Related Links

Times and Time Zones

All times are in EDT time to prevent confusion due to time zone crossing. See the KAP29 flight status page for this flight to view local times or setup timezone preferences in your user account.

Time Position Orientation Groundspeed Altitude Reporting Facility
EDT Latitude Longitude Course Direction KTS MPH feet Rate Location/Type
Fri 06:45:00 AM 44.2770 -73.9748 109° East  Level FlightAware Approximate
Fri 06:46:23 AM 44.4931 -74.1047 109° East 161 185 5,700  Level Boston Center
Fri 06:47:23 AM 44.4686 -74.0575 126° Southeast 116 133 7,200 1,300 Climbing Boston Center
Fri 06:48:23 AM 44.4464 -74.0161 127° Southeast 117 135 8,300 900 Climbing Boston Center
Fri 06:49:23 AM 44.4200 -73.9747 132° Southeast 138 159 9,000 364 Climbing Boston Center
Fri 06:50:35 AM 44.3872 -73.9128 127° Southeast 149 171 9,100 45 Climbing Boston Center
Fri 06:51:35 AM 44.3569 -73.8542 126° Southeast 169 194 9,100  Level Boston Center
Fri 06:52:35 AM 44.3283 -73.7925 123° Southeast 180 207 9,100  Level Boston Center
Fri 06:53:35 AM 44.3000 -73.7308 123° Southeast 185 213 9,100  Level Boston Center
Fri 06:54:35 AM 44.2733 -73.6839 128° Southeast 179 206 9,100  Level Boston Center
Fri 06:55:35 AM 44.2489 -73.6256 120° Southeast 179 206 9,100  Level Boston Center
Fri 06:56:35 AM 44.2183 -73.5728 129° Southeast 179 206 9,100  Level Boston Center
Fri 06:57:35 AM 44.1958 -73.5144 118° Southeast 187 215 9,100  Level Boston Center
Fri 06:58:35 AM 44.1672 -73.4589 126° Southeast 192 221 9,100 -50 Level Boston Center
Fri 06:59:35 AM 44.1406 -73.4033 124° Southeast 185 213 9,000  Descending Boston Center
Fri 07:00:35 AM 44.1097 -73.3422 125° Southeast 175 201 9,100  Climbing Boston Center
Fri 07:01:35 AM 44.0811 -73.2839 124° Southeast 175 201 9,000 -50 Descending Boston Center
Fri 07:02:35 AM 44.0525 -73.2258 124° Southeast 175 201 9,000 50 Level Boston Center
Fri 07:03:35 AM 44.0236 -73.1678 125° Southeast 175 201 9,100 50 Climbing Boston Center
Fri 07:04:35 AM 43.9947 -73.1094 125° Southeast 175 201 9,100 -45 Level Boston Center
Fri 07:05:47 AM 43.9639 -73.0486 125° Southeast 175 201 9,000 -45 Descending Boston Center
Fri 07:06:47 AM 43.9350 -72.9908 125° Southeast 175 201 9,000  Level Boston Center
Fri 07:07:47 AM 43.9061 -72.9328 125° Southeast 175 201 9,000  Level Boston Center
Fri 07:08:47 AM 43.8792 -72.8750 123° Southeast 175 201 9,000  Level Boston Center
Fri 07:09:47 AM 43.8503 -72.8172 125° Southeast 175 201 9,000 50 Level Boston Center
Fri 07:10:47 AM 43.8192 -72.7594 127° Southeast 175 201 9,100  Climbing Boston Center
Fri 07:11:47 AM 43.7922 -72.7047 124° Southeast 175 201 9,000  Descending Boston Center
Fri 07:12:47 AM 43.7631 -72.6414 123° Southeast 180 207 9,100  Climbing Boston Center
Fri 07:13:47 AM 43.7319 -72.5781 124° Southeast 180 207 9,000  Descending Boston Center
Fri 07:14:47 AM 43.7028 -72.5206 125° Southeast 180 207 9,100 50 Climbing Boston Center
Fri 07:15:47 AM 43.6717 -72.4631 127° Southeast 180 207 9,100  Level Boston Center
Fri 07:16:47 AM 43.6425 -72.4086 126° Southeast 175 201 9,100 -50 Level Boston Center
Fri 07:17:47 AM 43.6133 -72.3511 125° Southeast 175 201 9,000 -50 Descending Boston Center
Fri 07:18:47 AM 43.5861 -72.2911 122° Southeast 175 201 9,000  Level Boston Center
Fri 07:19:47 AM 43.5589 -72.2367 125° Southeast 175 201 9,000  Level Boston Center
Fri 07:20:47 AM 43.5297 -72.1794 125° Southeast 175 201 9,000 50 Level Boston Center
Fri 07:21:47 AM 43.5003 -72.1225 125° Southeast 175 201 9,100 50 Climbing Boston Center
Fri 07:22:47 AM 43.4711 -72.0681 126° Southeast 175 201 9,100  Level Boston Center
Fri 07:23:47 AM 43.4436 -72.0111 124° Southeast 175 201 9,100  Level Boston Center
Fri 07:25:47 AM 43.3744 -71.9144 135° Southeast 175 201 9,100 -33 Level Boston Center
Fri 07:26:47 AM 43.3389 -71.8692 137° Southeast 175 201 9,000  Descending Boston Center
Fri 07:27:47 AM 43.3033 -71.8239 137° Southeast 175 201 9,100 50 Climbing Boston Center
Fri 07:28:47 AM 43.2675 -71.7758 136° Southeast 175 201 9,100  Level Boston Center
Fri 07:29:47 AM 43.2319 -71.7306 137° Southeast 170 196 9,100 -100 Level Boston Center
Fri 07:30:47 AM 43.1961 -71.6825 136° Southeast 170 196 8,900 -250 Descending Boston Center
Fri 07:31:47 AM 43.1583 -71.6347 137° Southeast 180 207 8,600 -296 Descending Boston Center
Fri 07:32:08 AM 43.1500 -71.6167 122° Southeast 187 215 8,500 -300 Descending KA90
Fri 07:32:47 AM 43.1203 -71.5839 141° Southeast 180 207 8,300 -364 Descending Boston Center
Fri 07:33:47 AM 43.0825 -71.5361 137° Southeast 185 213 7,900 -350 Descending Boston Center
Fri 07:34:47 AM 43.0444 -71.4883 137° Southeast 185 213 7,600 -369 Descending Boston Center
Fri 07:37:02 AM 42.9667 -71.3833 135° Southeast 182 209 6,700 -393 Descending KA90
Fri 07:37:50 AM 42.9333 -71.3333 132° Southeast 181 208 6,400 -389 Descending KA90
Fri 07:38:50 AM 42.9000 -71.2833 132° Southeast 179 206 6,000 -182 Descending KA90
Fri 07:40:02 AM 42.8500 -71.2500 154° Southeast 159 183 6,000  Level KA90
Fri 07:41:02 AM 42.8167 -71.2333 160° South 152 175 6,000  Level KA90
Fri 07:41:56 AM 42.7833 -71.2167 160° South 153 176 6,000 -105 Level KA90
Fri 07:42:56 AM 42.7333 -71.1833 154° Southeast 155 178 5,800 -238 Descending KA90
Fri 07:44:02 AM 42.6833 -71.1667 166° South 161 185 5,500 -300 Descending KA90
Fri 07:44:56 AM 42.6500 -71.1500 160° South 162 186 5,200 -278 Descending KA90
Fri 07:45:50 AM 42.6167 -71.1333 160° South 163 188 5,000 -105 Descending KA90
Fri 07:46:50 AM 42.5667 -71.1000 154° Southeast 157 181 5,000  Level KA90
Fri 07:47:50 AM 42.5333 -71.1000 180° South 152 175 5,000  Level KA90
Fri 07:48:50 AM 42.5000 -71.0833 160° South 150 173 5,000  Level KA90
Fri 07:49:50 AM 42.4500 -71.0833 180° South 150 173 5,000  Level KA90
Fri 07:50:56 AM 42.4000 -71.0833 180° South 145 167 5,000 -238 Level KA90
Fri 07:51:56 AM 42.3667 -71.1167 216° Southwest 162 186 4,500 -450 Descending KA90
Fri 07:52:56 AM 42.3333 -71.1500 216° Southwest 161 185 4,100 -421 Descending KA90
Fri 07:53:50 AM 42.3000 -71.1667 200° South 167 192 3,700 -474 Descending KA90
Fri 07:54:50 AM 42.2500 -71.1500 166° South 158 182 3,200 -650 Descending KA90
Fri 07:55:50 AM 42.2167 -71.1167 143° Southeast 167 192 2,400 -600 Descending KA90
Fri 07:56:50 AM 42.2500 -71.0667 48° Northeast 172 198 2,000 -400 Descending KA90
Fri 07:57:50 AM 42.3000 -71.0333 26° Northeast 169 194 1,600 -632 Descending KA90
Fri 07:58:44 AM 42.3333 -71.0167 20° North 143 165 800 -889 Descending KA90

Login

Don't have an account? Register now (free) for customized features, flight alerts, and more!